Date,TemperatureHighF,TemperatureAvgF,TemperatureLowF,DewpointHighF,DewpointAvgF,DewpointLowF,HumidityHigh,HumidityAvg,HumidityLow,PressureMaxIn,PressureMinIn,WindSpeedMaxMPH,WindSpeedAvgMPH,GustSpeedMaxMPH,PrecipitationSumIn
2013-1-1,44.1,41.6,38.2,30.5,28.7,24.0,68,60,53,29.97,29.85,19,4,19,0.00
2013-1-2,38.0,33.6,30.1,27.2,17.6,12.6,65,52,39,30.19,29.94,19,5,19,0.00
2013-1-3,39.8,31.6,27.5,22.2,13.8,-99.9,69,52,40,30.20,30.09,13,-22,13,0.00
2013-1-4,43.3,35.9,29.8,23.8,22.3,21.2,72,58,44,30.14,30.03,24,6,24,0.00
2013-1-5,45.2,38.3,33.2,30.6,24.5,21.2,73,58,44,30.32,30.07,17,3,17,0.00
2013-1-6,52.2,43.5,34.4,35.9,31.3,26.7,94,65,38,30.14,29.96,20,3,20,0.00
2013-1-7,47.0,41.4,33.8,31.3,27.1,-99.9,77,59,47,30.38,30.08,20,-6,20,0.00
2013-1-8,56.3,37.5,31.3,38.8,19.3,-99.9,89,66,41,30.37,30.30,12,-64,12,0.00
2013-1-9,50.1,43.1,34.4,43.6,35.2,-99.9,95,80,68,30.33,30.16,12,1,12,0.00
2013-1-10,54.4,46.8,41.8,36.9,30.7,28.4,70,54,38,30.54,30.30,16,3,16,0.00
2013-1-11,44.3,37.1,40.5,34.3,16.2,-99.9,75,59,59,30.45,30.29,6,-115,6,0.00
2013-1-12,56.3,47.8,43.1,48.8,45.5,43.1,100,91,50,30.11,30.04,6,1,8,0.00
2013-1-13,48.9,45.6,42.2,48.9,45.5,42.2,100,100,96,30.09,29.92,7,2,7,0.01
2013-1-14,58.0,49.0,41.9,55.9,38.6,-99.9,100,79,55,30.25,29.89,18,-38,18,0.08
2013-1-15,41.3,37.3,36.0,40.4,25.7,-99.9,99,83,72,30.29,30.11,13,-70,13,0.46
2013-1-16,41.8,20.9,35.2,41.3,-27.7,-99.9,100,51,96,30.11,29.79,11,-445,11,0.49
2013-1-17,45.2,42.5,39.5,41.6,31.9,27.4,100,67,52,30.07,29.91,18,4,18,0.02
2013-1-18,39.5,34.9,30.6,30.9,16.8,5.0,72,49,27,30.44,29.98,24,5,24,0.00
2013-1-19,58.0,42.5,30.3,29.6,25.9,13.7,79,53,32,30.37,29.89,17,3,17,0.00
2013-1-20,58.0,46.2,37.0,32.6,24.2,11.3,68,44,20,30.04,29.74,33,7,33,0.00
2013-1-21,41.2,31.6,30.0,30.3,-2.4,-99.9,77,44,40,30.06,29.76,25,-57,25,0.00
2013-1-22,30.3,13.8,17.2,11.6,-37.8,-99.9,46,23,28,30.25,29.87,32,-352,32,0.00
2013-1-23,25.3,10.8,21.6,8.1,-56.4,-99.9,55,15,29,30.29,30.11,18,-544,18,0.00
2013-1-24,27.2,21.5,16.9,15.2,7.5,-3.0,89,57,27,30.45,30.07,26,6,26,0.00
2013-1-25,24.7,20.4,18.4,20.1,5.1,-99.9,93,59,39,30.45,30.02,10,-19,10,0.00
2013-1-26,33.8,27.1,21.8,20.1,18.8,17.3,87,71,53,30.38,30.03,14,4,14,0.02
2013-1-27,39.2,31.2,25.4,26.7,21.0,17.0,84,67,41,30.54,30.38,11,2,11,0.01
2013-1-28,41.1,35.7,31.2,39.8,33.4,24.3,99,92,73,30.46,30.00,12,2,12,0.12
2013-1-29,59.3,46.9,36.0,49.8,43.7,35.7,100,89,69,30.08,29.94,11,1,11,0.00
2013-1-30,70.8,39.3,45.7,63.3,6.3,-99.9,100,64,75,29.93,29.17,27,-285,27,0.01
2013-1-31,58.4,32.3,30.7,53.9,-3.8,-99.9,85,37,37,29.86,29.09,37,-192,37,0.20
2013-2-1,32.7,27.4,20.6,27.0,10.6,2.2,95,50,33,30.32,29.78,33,8,33,0.00
2013-2-2,30.0,24.2,18.0,27.4,13.3,3.6,96,65,37,30.33,29.98,16,3,16,0.00
2013-2-3,34.9,30.5,26.4,30.1,26.5,17.1,97,85,56,29.97,29.78,20,3,20,0.02
2013-2-4,38.2,26.9,24.4,28.8,-0.7,-99.9,78,46,41,30.05,29.85,22,-110,22,0.00
2013-2-5,38.9,36.0,32.9,32.2,28.8,26.3,84,75,63,29.89,29.81,7,1,7,0.00
2013-2-6,43.2,38.1,34.3,31.9,27.0,21.3,86,65,48,30.31,29.88,24,5,24,0.00
2013-2-7,39.2,35.0,30.1,29.7,23.8,16.4,75,64,46,30.41,30.17,13,2,13,0.00
2013-2-8,42.6,36.8,34.9,41.0,27.4,-99.9,100,82,63,30.17,29.67,34,-39,34,0.17
2013-2-9,40.3,30.7,28.4,23.7,7.7,-99.9,63,48,39,30.33,29.82,36,-73,36,0.00
2013-2-10,40.9,26.0,25.6,30.7,-15.8,-99.9,77,35,26,30.44,30.22,13,-268,13,0.00
2013-2-11,53.9,21.5,37.6,52.1,-37.5,-99.9,98,39,58,30.21,29.62,14,-531,141,0.19
2013-2-12,55.0,47.9,39.5,36.9,30.4,27.0,63,51,37,29.93,29.74,25,5,25,0.00
2013-2-13,44.5,38.2,34.6,36.6,30.6,26.6,99,75,59,29.92,29.62,11,3,11,0.27
2013-2-14,51.4,37.7,33.2,35.6,23.4,-99.9,100,70,34,29.96,29.70,12,-60,12,0.00
2013-2-15,54.8,42.8,35.6,40.1,34.5,-99.9,96,76,53,29.98,29.84,18,-7,25,0.05
2013-2-16,38.8,36.5,33.7,36.8,30.7,16.1,100,81,49,29.96,29.76,16,4,16,0.04
2013-2-17,33.7,28.9,24.7,18.3,11.9,5.4,65,49,34,30.12,29.76,34,11,34,0.00
2013-2-18,43.6,31.1,21.1,29.2,11.3,3.7,80,45,23,30.32,30.12,28,5,28,0.00
2013-2-19,45.4,40.1,34.3,43.3,32.8,22.7,96,76,50,30.12,29.66,20,4,20,0.09
2013-2-20,38.8,32.0,25.7,23.6,15.4,9.7,59,50,43,30.09,29.79,27,9,27,0.00
2013-2-21,38.8,30.8,24.2,17.5,14.5,11.4,62,51,40,30.27,30.06,22,7,28,0.00
2013-2-22,34.9,32.4,30.3,32.5,23.8,17.3,96,71,55,30.35,30.18,12,3,12,0.01
2013-2-23,47.6,40.7,33.4,47.1,40.5,32.4,100,99,95,30.18,29.75,11,2,11,0.09
2013-2-24,50.8,42.4,33.7,42.9,32.4,22.1,100,71,39,30.05,29.73,28,8,28,0.00
2013-2-25,49.2,39.4,32.1,31.2,24.7,20.6,77,56,38,30.17,30.04,16,4,16,0.00
2013-2-26,43.5,35.9,34.3,42.9,23.7,-99.9,100,78,68,30.18,29.59,26,-73,26,0.46
2013-2-27,55.9,48.4,41.5,45.4,39.8,34.1,100,75,46,29.63,29.44,20,5,20,0.08
2013-2-28,47.7,44.2,41.1,39.3,31.3,24.0,85,61,40,29.66,29.57,22,6,22,0.01
2013-3-1,45.4,41.8,37.9,32.5,29.8,24.9,74,63,53,29.81,29.64,18,7,18,0.00
2013-3-2,38.5,35.9,32.9,26.6,23.3,20.9,67,60,51,29.82,29.74,21,7,21,0.00
2013-3-3,38.5,34.5,31.6,22.4,20.4,18.6,67,56,47,29.84,29.73,25,9,25,0.00
2013-3-4,42.5,34.9,28.4,20.4,17.8,14.6,59,50,39,29.96,29.84,29,9,29,0.00
2013-3-5,50.5,38.1,30.6,32.6,20.8,-99.9,74,52,28,30.03,29.79,16,-9,16,0.00
2013-3-6,41.5,38.0,33.8,37.3,34.8,28.8,100,89,66,29.92,29.59,33,8,33,0.57
2013-3-7,50.1,42.9,37.3,30.8,27.0,23.5,72,54,38,30.08,29.92,26,8,26,0.00
2013-3-8,48.8,42.7,36.0,28.8,25.5,21.8,67,51,42,30.19,30.05,33,10,33,0.00
2013-3-9,64.3,48.9,37.2,35.0,24.2,16.1,57,41,16,30.28,30.18,19,4,19,0.00
2013-3-10,59.8,48.5,38.6,40.3,29.1,15.5,84,51,19,30.29,30.18,17,3,17,0.00
2013-3-11,57.6,30.2,43.3,50.7,-10.0,-99.9,96,55,76,30.22,29.90,14,-364,14,0.00
2013-3-12,58.4,10.3,46.8,57.0,-75.3,-99.9,100,13,50,29.92,29.65,21,-802,21,0.38
2013-3-13,50.4,11.6,36.9,31.7,-72.8,-99.9,78,11,27,29.98,29.83,26,-713,26,0.00
2013-3-14,44.2,24.8,32.8,18.6,-30.3,-99.9,54,23,26,30.04,29.94,32,-337,32,0.00
2013-3-15,56.2,33.8,32.5,33.0,-13.2,-99.9,62,29,28,30.02,29.71,21,-273,21,0.00
2013-3-16,51.0,24.4,39.2,39.0,-27.6,-99.9,82,37,51,29.88,29.61,17,-457,17,0.00
2013-3-17,50.0,25.8,36.3,64.9,-18.9,-99.9,87,37,50,30.22,29.87,10,-376,11,0.00
2013-3-18,50.0,25.6,32.0,50.0,-10.8,-99.9,100,53,1,30.28,29.82,14,-316,14,0.33
2013-3-19,58.4,35.2,32.0,38.8,0.8,-99.9,100,31,1,29.85,29.65,33,-189,33,0.00
2013-3-20,52.5,43.8,35.2,24.2,17.2,12.5,54,36,21,29.93,29.71,24,6,24,0.00
2013-3-21,43.5,35.5,29.8,28.4,15.3,6.4,77,44,28,29.83,29.68,27,8,27,0.00
2013-3-22,45.4,36.2,28.5,20.1,17.0,10.5,59,46,33,29.94,29.81,29,7,29,0.00
2013-3-23,51.9,41.0,30.6,24.5,22.1,19.8,69,49,30,29.96,29.85,24,6,24,0.00
2013-3-24,43.2,39.6,35.0,34.8,24.2,20.9,91,55,42,29.94,29.62,14,3,14,0.00
2013-3-25,37.3,35.6,33.1,36.7,34.5,32.5,100,96,84,29.63,29.46,11,3,11,0.53
2013-3-26,52.2,42.2,33.7,36.6,31.3,21.2,97,69,31,29.90,29.63,22,6,22,0.00
2013-3-27,50.8,44.4,39.9,36.1,29.4,25.2,77,56,37,30.04,29.90,32,9,32,0.01
2013-3-28,49.6,43.9,38.0,34.0,29.9,23.8,75,59,36,30.15,30.02,24,7,24,0.00
2013-3-29,56.5,49.1,43.3,31.7,28.4,24.4,60,45,31,30.18,30.07,22,6,22,0.00
2013-3-30,62.3,51.7,42.5,34.1,29.3,17.6,67,44,19,30.17,30.05,13,2,13,0.00
2013-3-31,55.6,48.3,44.2,49.8,40.2,29.4,100,74,48,30.08,29.72,7,2,16,0.00
2013-4-1,65.0,51.4,42.9,48.4,37.8,15.8,100,64,33,29.92,29.65,31,7,31,0.00
2013-4-2,48.5,41.9,35.9,18.6,15.1,11.6,48,34,24,30.11,29.93,26,7,26,0.00
2013-4-3,50.2,41.5,34.3,20.3,15.1,7.9,54,36,19,30.32,30.11,26,7,26,0.00
2013-4-4,48.2,40.6,30.6,32.9,18.9,12.3,71,42,26,30.37,30.05,12,3,13,0.00
2013-4-5,66.1,51.3,39.1,39.4,30.5,19.1,97,55,20,30.05,29.74,24,5,24,0.11
2013-4-6,53.3,47.1,39.5,36.9,21.2,13.1,70,37,22,30.28,29.98,20,5,20,0.00
2013-4-7,66.4,53.4,41.5,47.4,40.5,31.9,85,63,44,30.24,29.92,18,4,18,0.00
2013-4-8,75.1,64.7,54.1,55.7,49.1,44.1,76,58,39,30.02,29.90,16,2,16,0.00
2013-4-9,88.2,73.6,63.7,56.6,54.1,51.3,68,52,30,30.00,29.85,21,4,21,0.00
2013-4-10,93.4,79.0,65.3,59.5,55.8,52.7,71,47,27,29.89,29.69,21,4,21,0.00
2013-4-11,83.8,69.2,54.8,62.6,59.1,53.1,95,72,45,29.84,29.71,22,4,22,0.00
2013-4-12,62.4,55.1,51.0,59.4,54.3,50.8,100,97,90,29.80,29.55,18,5,18,0.46
2013-4-13,68.6,56.4,47.0,51.7,43.6,35.8,98,66,33,29.90,29.71,22,4,22,0.00
2013-4-14,68.4,58.4,48.5,49.0,39.2,32.0,82,51,27,30.08,29.90,21,4,21,0.00
2013-4-15,62.7,57.5,53.9,50.9,48.6,46.1,86,72,56,30.25,30.08,16,4,16,0.00
2013-4-16,73.7,62.0,53.9,59.5,54.5,49.5,88,77,59,30.27,30.06,17,3,17,0.00
2013-4-17,74.9,66.0,60.2,62.7,59.4,56.2,96,81,58,30.15,30.05,16,2,17,0.00
2013-4-18,74.2,63.6,58.1,64.2,58.4,53.1,100,84,66,30.19,29.97,21,5,21,0.06
2013-4-19,76.5,66.4,55.0,68.0,62.8,51.2,100,89,70,29.96,29.54,26,4,26,0.56
2013-4-20,59.9,53.5,47.4,54.0,33.3,25.0,97,50,27,30.28,29.71,25,8,25,0.08
2013-4-21,55.1,48.2,40.6,38.4,25.6,19.0,70,42,24,30.55,30.28,20,4,20,0.00
2013-4-22,57.2,49.2,41.1,40.1,36.1,33.5,75,61,44,30.54,30.37,19,5,19,0.00
2013-4-23,63.4,52.8,46.5,47.3,42.3,39.5,85,69,43,30.36,30.08,11,4,14,0.00
2013-4-24,73.3,60.5,47.6,59.9,53.2,46.1,97,78,58,30.08,29.73,31,4,31,0.00
2013-4-25,67.6,56.6,47.1,52.4,34.2,24.6,72,45,21,30.24,29.90,31,6,31,0.00
2013-4-26,67.6,58.5,49.9,40.5,32.7,24.6,64,40,22,30.39,30.24,16,4,16,0.00
2013-4-27,69.8,60.0,47.7,46.2,36.2,22.8,70,44,19,30.38,30.23,12,2,12,0.00
2013-4-28,70.4,60.4,50.4,48.5,41.7,31.5,84,53,26,30.24,30.10,17,3,17,0.00
2013-4-29,60.1,57.2,54.5,59.3,55.3,41.2,100,95,51,30.11,30.01,13,3,13,0.22
2013-4-30,63.7,58.4,54.8,58.5,54.1,38.5,100,87,50,30.24,30.05,14,3,14,0.15
2013-5-1,71.5,60.4,50.5,52.2,40.0,34.4,77,49,27,30.38,30.24,18,4,18,0.00
2013-5-2,69.9,59.8,49.5,49.6,47.2,44.5,91,65,43,30.39,30.26,13,3,13,0.00
2013-5-3,66.4,58.3,51.1,50.0,45.8,41.8,90,64,43,30.34,30.26,16,4,16,0.00
2013-5-4,69.3,57.9,48.5,48.4,45.1,39.4,89,65,42,30.29,30.13,17,4,17,0.00
2013-5-5,63.7,54.7,47.1,50.0,43.7,40.5,82,67,51,30.20,30.10,12,4,14,0.00
2013-5-6,64.5,56.6,48.8,59.5,52.5,44.3,94,86,78,30.14,30.02,16,4,16,0.00
2013-5-7,67.1,61.1,57.8,64.9,60.6,57.8,100,98,90,30.04,29.90,19,6,19,0.58
2013-5-8,70.9,62.6,59.2,60.9,58.9,54.3,99,88,66,29.95,29.88,16,3,16,0.17
2013-5-9,76.8,65.4,55.1,61.3,57.7,55.1,100,78,52,29.92,29.86,14,3,14,0.00
2013-5-10,85.7,72.0,59.5,65.5,60.4,57.0,100,70,42,29.95,29.80,29,3,29,0.43
2013-5-11,81.4,68.0,63.7,68.4,64.9,59.1,100,91,53,29.86,29.65,19,3,19,0.22
2013-5-12,65.0,61.1,53.1,64.3,40.5,24.4,100,52,24,29.97,29.67,31,8,31,0.00
2013-5-13,59.8,53.2,45.8,36.6,28.3,20.5,68,40,22,30.11,29.97,28,7,28,0.00
2013-5-14,63.2,54.4,42.3,45.3,31.1,24.9,65,42,27,30.15,29.99,20,4,20,0.00
2013-5-15,79.8,66.5,56.7,68.1,56.1,44.2,91,70,53,30.01,29.63,14,3,14,0.03
2013-5-16,83.0,75.7,69.9,67.7,62.3,58.8,86,64,52,29.83,29.66,28,4,28,0.01
2013-5-17,81.6,73.6,63.7,59.7,50.7,37.3,83,48,25,30.09,29.84,14,4,14,0.00
2013-5-18,70.4,65.1,59.8,60.9,56.1,47.7,100,74,49,30.19,30.09,14,4,14,0.01
2013-5-19,72.0,65.0,60.1,66.9,63.6,60.1,100,96,83,30.17,30.05,10,2,10,0.01
2013-5-20,82.2,72.5,66.1,71.0,68.1,64.9,100,87,65,30.07,29.92,12,2,12,0.00
2013-5-21,87.4,76.5,68.4,73.1,70.4,68.4,100,83,58,29.94,29.81,11,2,11,0.00
2013-5-22,88.4,78.6,70.4,74.5,71.9,65.2,100,81,61,29.86,29.77,18,4,18,0.00
2013-5-23,82.0,73.6,65.3,73.5,68.7,63.1,100,85,66,29.84,29.70,19,3,19,0.84
2013-5-24,66.4,58.8,51.3,66.4,51.6,34.8,100,78,54,30.07,29.66,27,9,27,0.04
2013-5-25,67.6,56.8,46.0,37.2,34.9,31.8,69,46,28,30.08,29.99,29,10,29,0.00
2013-5-26,73.7,62.3,51.0,42.6,36.8,33.0,60,41,24,30.14,30.05,24,6,24,0.00
2013-5-27,73.3,65.9,55.1,50.9,41.5,31.1,59,42,26,30.23,30.11,13,3,13,0.00
2013-5-28,77.0,68.6,62.0,70.1,61.8,49.7,100,80,57,30.14,30.01,11,2,11,0.31
2013-5-29,92.3,78.9,67.1,72.0,68.6,64.0,100,74,42,30.05,29.99,17,3,17,0.00
2013-5-30,92.9,83.1,73.7,73.1,69.4,66.6,81,65,47,30.11,30.03,12,3,12,0.00
2013-5-31,94.3,83.5,72.3,71.5,66.8,57.7,86,60,34,30.09,29.95,20,3,20,0.00
2013-6-1,96.8,84.0,72.7,71.8,68.0,65.4,80,61,40,29.98,29.84,14,2,14,0.00
2013-6-2,87.6,79.1,70.4,74.3,69.3,65.6,99,73,58,29.85,29.77,20,4,20,0.21
2013-6-3,83.2,74.4,67.6,72.2,67.8,58.3,100,82,50,29.87,29.75,21,3,21,0.52
2013-6-4,79.2,70.6,61.8,58.4,47.4,39.6,66,45,28,30.06,29.87,17,5,17,0.00
2013-6-5,80.5,71.7,62.4,60.5,53.2,46.3,76,54,34,30.13,30.00,14,3,14,0.00
2013-6-6,75.3,70.2,66.6,66.3,60.9,54.0,93,73,59,30.04,29.83,16,3,16,0.12
2013-6-7,71.3,69.2,66.9,71.3,69.0,65.4,100,99,91,29.83,29.52,18,4,18,1.79
2013-6-8,82.6,73.3,66.3,66.5,64.5,60.9,99,76,50,30.03,29.60,17,4,17,0.00
2013-6-9,83.2,75.5,69.1,71.4,64.2,57.0,86,69,46,30.14,30.03,12,2,12,0.00
2013-6-10,79.6,73.8,70.3,76.5,72.7,68.4,100,97,85,30.06,29.73,17,3,17,2.22
2013-6-11,85.5,75.9,68.1,70.8,67.8,64.5,100,78,53,29.77,29.69,28,6,28,0.01
2013-6-12,89.0,79.3,69.3,73.9,68.1,65.8,90,70,49,29.80,29.72,21,4,21,0.00
2013-6-13,87.0,77.3,71.6,73.5,70.8,66.6,100,82,53,29.76,29.44,25,4,25,0.30
2013-6-14,81.4,70.6,60.5,62.7,55.8,50.5,93,63,35,29.89,29.49,15,7,27,0.04
2013-6-15,84.3,75.4,64.7,60.3,56.7,50.1,80,55,33,30.00,29.90,18,4,18,0.00
2013-6-16,76.3,72.7,69.4,69.1,63.9,59.2,79,74,66,29.96,29.77,3,1,3,0.00